This is the latest recevied weather packets stored in our database for station/object W7TRD. If no packets are shown the sender has not sent any weather packets the latest 10 day(s).
| Time | Temp. | Humidity | Pressure | Rain* | Wind** | Luminosity | Snow |
|---|---|---|---|---|---|---|---|
| 1777775226 | 22.78° C | 60% | 1012.8 hPa | 0 mm | - | 46 W/m² | - |
| 1777774925 | 23.33° C | 59% | 1012.5 hPa | 0 mm | - | 52 W/m² | - |
| 1777774623 | 24.44° C | 57% | 1012.2 hPa | 0 mm | - | 64 W/m² | - |
| 1777774319 | 25.56° C | 55% | 1012.1 hPa | 0 mm | - | 78 W/m² | - |
| 1777774016 | 25.56° C | 52% | 1012 hPa | 0 mm | - | 91 W/m² | - |
| 1777773714 | 25.56° C | 53% | 1011.9 hPa | 0 mm | - | 100 W/m² | - |
| 1777773410 | 25.56° C | 53% | 1012 hPa | 0 mm | - | 112 W/m² | - |
| 1777773107 | 25.56° C | 52% | 1012.1 hPa | 0 mm | - | 124 W/m² | - |
| 1777772803 | 25.56° C | 53% | 1011.9 hPa | 0 mm | - | 136 W/m² | - |
| 1777772501 | 25.56° C | 54% | 1011.9 hPa | 0 mm | - | 147 W/m² | - |
| 1777772198 | 25.56° C | 55% | 1011.9 hPa | 0 mm | - | 153 W/m² | - |
| 1777771896 | 25.56° C | 54% | 1012 hPa | 0 mm | - | 158 W/m² | - |
| 1777771593 | 25.56° C | 53% | 1011.8 hPa | 0 mm | - | 165 W/m² | - |
| 1777771290 | 25.56° C | 54% | 1011.8 hPa | 0 mm | - | 181 W/m² | - |
| 1777770986 | 25.56° C | 54% | 1011.8 hPa | 0 mm | - | 190 W/m² | - |
| 1777770684 | 25.56° C | 54% | 1011.9 hPa | 0 mm | - | 204 W/m² | - |
| 1777770380 | 25.56° C | 54% | 1011.9 hPa | 0 mm | - | 224 W/m² | - |
| 1777770077 | 25° C | 54% | 1011.8 hPa | 0 mm | - | 258 W/m² | - |
| 1777769774 | 25° C | 54% | 1012 hPa | 0 mm | - | 300 W/m² | - |
| 1777769471 | 25.56° C | 53% | 1011.9 hPa | 0 mm | - | 309 W/m² | - |
| 1777769167 | 25.56° C | 52% | 1012.1 hPa | 0 mm | - | 314 W/m² | - |
| 1777768866 | 25° C | 54% | 1011.9 hPa | 0 mm | - | 325 W/m² | - |
| 1777768562 | 25.56° C | 53% | 1012 hPa | 0 mm | - | 326 W/m² | - |
| 1777768259 | 25.56° C | 53% | 1011.9 hPa | 0 mm | - | 317 W/m² | - |
| 1777767956 | 25.56° C | 53% | 1012 hPa | 0 mm | - | 363 W/m² | - |
* Rain latest hour (hover to see other rain measurements)
** Current wind speed in m/s (hover to see current wind gust speed)